createdAt,value
2022-08-22T00:00:47.823Z,19.20
2022-08-22T00:04:04.665Z,18.90
2022-08-22T00:07:22.776Z,18.90
2022-08-22T00:10:39.691Z,18.80
2022-08-22T00:14:02.183Z,18.80
2022-08-22T00:17:36.138Z,18.80
2022-08-22T00:21:01.760Z,18.70
2022-08-22T00:24:21.963Z,15.70
2022-08-22T00:27:36.522Z,18.80
2022-08-22T00:30:59.402Z,19.00
2022-08-22T00:34:08.507Z,18.60
2022-08-22T00:37:24.270Z,18.50
2022-08-22T00:40:47.780Z,18.60
2022-08-22T00:44:31.859Z,18.30
2022-08-22T00:47:52.641Z,18.50
2022-08-22T00:51:39.574Z,18.40
2022-08-22T00:55:16.042Z,18.40
2022-08-22T00:58:53.099Z,18.30
2022-08-22T01:02:14.568Z,18.40
2022-08-22T01:05:49.238Z,18.30
2022-08-22T01:09:05.911Z,18.30
2022-08-22T01:12:34.215Z,18.30
2022-08-22T01:15:39.625Z,18.10
2022-08-22T01:19:09.341Z,18.10
2022-08-22T01:23:06.793Z,18.00
2022-08-22T01:26:58.785Z,17.90
2022-08-22T01:30:32.305Z,17.90
2022-08-22T01:34:28.435Z,17.90
2022-08-22T01:38:04.913Z,17.80
2022-08-22T01:41:42.304Z,17.80
2022-08-22T01:45:19.687Z,17.80
2022-08-22T01:48:35.582Z,17.80
2022-08-22T01:51:49.616Z,17.70
2022-08-22T01:55:00.216Z,17.70
2022-08-22T01:58:16.537Z,17.70
2022-08-22T02:01:37.117Z,17.60
2022-08-22T02:04:49.307Z,17.50
2022-08-22T02:08:02.143Z,17.50
2022-08-22T02:11:10.599Z,17.50
2022-08-22T02:14:41.701Z,16.80
2022-08-22T02:18:11.925Z,17.40
2022-08-22T02:21:25.316Z,17.40
2022-08-22T02:24:47.288Z,17.80
2022-08-22T02:28:03.513Z,17.40
2022-08-22T02:31:16.672Z,17.40
2022-08-22T02:34:39.581Z,17.40
2022-08-22T02:38:00.301Z,16.40
2022-08-22T02:41:19.445Z,17.30
2022-08-22T02:44:34.627Z,17.30
2022-08-22T02:47:52.173Z,17.30
2022-08-22T02:51:04.372Z,17.10
2022-08-22T02:54:19.002Z,17.30
2022-08-22T02:57:39.424Z,16.70
2022-08-22T03:00:50.484Z,17.20
2022-08-22T03:04:32.095Z,17.10
2022-08-22T03:07:44.896Z,17.00
2022-08-22T03:11:00.394Z,17.00
2022-08-22T03:14:12.964Z,16.70
2022-08-22T03:17:27.760Z,16.90
2022-08-22T03:20:46.740Z,16.80
2022-08-22T03:24:01.029Z,16.80
2022-08-22T03:27:14.339Z,16.80
2022-08-22T03:30:42.373Z,16.70
2022-08-22T03:34:18.810Z,16.70
2022-08-22T03:37:33.067Z,16.70
2022-08-22T03:40:57.765Z,16.70
2022-08-22T03:44:31.841Z,16.70
2022-08-22T03:48:00.025Z,16.70
2022-08-22T03:51:31.094Z,16.70
2022-08-22T03:55:22.023Z,14.90
2022-08-22T03:59:17.570Z,16.70
2022-08-22T04:02:51.737Z,16.70
2022-08-22T04:06:36.703Z,16.50
2022-08-22T04:10:29.757Z,16.60
2022-08-22T04:14:13.945Z,16.60
2022-08-22T04:17:53.172Z,16.60
2022-08-22T04:21:50.506Z,16.60
2022-08-22T04:25:07.622Z,16.30
2022-08-22T04:28:23.781Z,18.90
2022-08-22T04:31:35.019Z,16.60
2022-08-22T04:34:43.726Z,16.60
2022-08-22T04:37:56.689Z,16.50
2022-08-22T04:41:09.290Z,16.40
2022-08-22T04:44:20.438Z,16.50
2022-08-22T04:47:33.010Z,16.60
2022-08-22T04:50:44.814Z,15.00
2022-08-22T04:54:31.074Z,16.50
2022-08-22T04:57:50.580Z,16.50
2022-08-22T05:01:00.678Z,16.60
2022-08-22T05:04:10.681Z,16.60
2022-08-22T05:07:20.761Z,17.00
2022-08-22T05:10:33.421Z,17.40
2022-08-22T05:13:43.009Z,17.80
2022-08-22T05:16:54.179Z,18.50
2022-08-22T05:20:03.542Z,15.10
2022-08-22T05:23:17.859Z,19.20
2022-08-22T05:26:23.438Z,19.80
2022-08-22T05:29:32.782Z,20.50
2022-08-22T05:32:51.578Z,21.10
2022-08-22T05:36:03.591Z,24.10
2022-08-22T05:39:14.339Z,19.30
2022-08-22T05:42:32.666Z,22.20
2022-08-22T05:45:37.565Z,24.00
2022-08-22T05:48:49.335Z,23.90
2022-08-22T05:52:15.919Z,24.80
2022-08-22T05:55:29.462Z,24.90
2022-08-22T05:58:52.680Z,25.30
2022-08-22T06:02:07.017Z,25.60
2022-08-22T06:05:12.364Z,25.90
2022-08-22T06:08:23.926Z,26.10
2022-08-22T06:11:36.854Z,26.40
2022-08-22T06:14:54.965Z,26.70
2022-08-22T06:18:03.298Z,27.20
2022-08-22T06:21:12.714Z,27.20
2022-08-22T06:24:23.694Z,29.90
2022-08-22T06:27:31.239Z,27.60
2022-08-22T06:30:40.060Z,27.80
2022-08-22T06:33:53.994Z,27.90
2022-08-22T06:37:06.164Z,30.50
2022-08-22T06:40:14.503Z,28.30
2022-08-22T06:43:19.656Z,28.50
2022-08-22T06:46:29.068Z,28.60
2022-08-22T06:49:37.184Z,28.90
2022-08-22T06:52:53.671Z,28.90
2022-08-22T06:56:02.737Z,29.00
2022-08-22T06:59:13.634Z,27.10
2022-08-22T07:02:28.501Z,29.20
2022-08-22T07:05:39.122Z,29.40
2022-08-22T07:08:43.230Z,29.50
2022-08-22T07:11:46.812Z,29.50
2022-08-22T07:14:55.211Z,29.60
2022-08-22T07:18:05.116Z,27.50
2022-08-22T07:21:09.596Z,29.80
2022-08-22T07:24:23.115Z,29.80
2022-08-22T07:27:54.011Z,29.70
2022-08-22T07:31:01.540Z,29.70
2022-08-22T07:34:35.849Z,29.60
2022-08-22T07:37:59.808Z,28.30
2022-08-22T07:41:13.996Z,29.80
2022-08-22T07:44:19.950Z,28.60
2022-08-22T07:47:29.887Z,28.30
2022-08-22T07:50:42.569Z,28.00
2022-08-22T07:53:50.188Z,27.80
2022-08-22T07:57:01.565Z,27.60
2022-08-22T08:00:15.291Z,27.30
2022-08-22T08:03:21.691Z,27.10
2022-08-22T08:06:29.172Z,26.90
2022-08-22T08:09:36.251Z,26.80
2022-08-22T08:12:52.775Z,26.70
2022-08-22T08:16:10.731Z,26.60
2022-08-22T08:19:17.593Z,26.50
2022-08-22T08:22:26.515Z,26.40
2022-08-22T08:25:53.557Z,26.30
2022-08-22T08:28:59.479Z,26.80
2022-08-22T08:32:03.193Z,26.20
2022-08-22T08:35:14.324Z,26.10
2022-08-22T08:38:26.416Z,26.00
2022-08-22T08:42:05.560Z,25.90
2022-08-22T08:45:58.442Z,25.90
2022-08-22T08:49:36.306Z,25.90
2022-08-22T08:53:19.517Z,25.80
2022-08-22T08:56:39.029Z,25.80
2022-08-22T08:59:55.444Z,25.80
2022-08-22T09:03:15.456Z,25.90
2022-08-22T09:07:06.237Z,25.80
2022-08-22T09:10:52.779Z,25.80
2022-08-22T09:14:17.118Z,25.80
2022-08-22T09:18:01.038Z,25.70
2022-08-22T09:21:51.715Z,25.70
2022-08-22T09:25:24.960Z,25.80
2022-08-22T09:28:39.441Z,25.70
2022-08-22T09:32:00.119Z,25.80
2022-08-22T09:35:16.390Z,25.90
2022-08-22T09:38:47.724Z,25.90
2022-08-22T09:42:03.719Z,25.90
2022-08-22T09:45:51.568Z,25.90
2022-08-22T09:49:07.201Z,27.70
2022-08-22T09:52:44.590Z,25.10
2022-08-22T09:56:15.042Z,26.00
2022-08-22T09:59:26.919Z,26.00
2022-08-22T10:02:43.551Z,26.00
2022-08-22T10:05:58.047Z,26.10
2022-08-22T10:09:09.003Z,26.10
2022-08-22T10:12:24.831Z,26.00
2022-08-22T10:15:39.682Z,26.00
2022-08-22T10:18:55.384Z,26.00
2022-08-22T10:22:34.366Z,26.00
2022-08-22T10:25:44.829Z,26.00
2022-08-22T10:28:55.914Z,25.90
2022-08-22T10:32:16.586Z,25.80
2022-08-22T10:35:33.945Z,26.60
2022-08-22T10:38:47.183Z,25.70
2022-08-22T10:42:16.895Z,25.10
2022-08-22T10:45:35.967Z,24.10
2022-08-22T10:48:49.679Z,25.70
2022-08-22T10:52:14.850Z,25.80
2022-08-22T10:55:28.532Z,25.70
2022-08-22T10:58:39.845Z,25.80
2022-08-22T11:01:59.921Z,25.90
2022-08-22T11:05:35.676Z,25.90
2022-08-22T11:09:05.610Z,25.60
2022-08-22T11:12:26.729Z,26.00
2022-08-22T11:15:59.953Z,26.00
2022-08-22T11:19:39.534Z,26.00
2022-08-22T11:22:58.486Z,26.60
2022-08-22T11:26:33.598Z,26.00
2022-08-22T11:29:56.839Z,26.00
2022-08-22T11:33:20.973Z,26.00
2022-08-22T11:36:42.845Z,26.80
2022-08-22T11:40:11.985Z,23.70
2022-08-22T11:43:41.474Z,25.80
2022-08-22T11:46:52.156Z,25.90
2022-08-22T11:50:13.667Z,25.90
2022-08-22T11:53:28.886Z,26.00
2022-08-22T11:56:40.235Z,26.00
2022-08-22T12:00:11.395Z,25.80
2022-08-22T12:03:35.483Z,26.00
2022-08-22T12:06:56.370Z,26.00
2022-08-22T12:10:06.751Z,26.10
2022-08-22T12:13:34.823Z,26.20
2022-08-22T12:16:49.940Z,26.10
2022-08-22T12:20:16.750Z,26.20
2022-08-22T12:23:56.609Z,26.30
2022-08-22T12:27:33.664Z,26.40
2022-08-22T12:30:48.406Z,26.50
2022-08-22T12:34:12.224Z,26.60
2022-08-22T12:37:30.265Z,26.70
2022-08-22T12:40:53.213Z,26.70
2022-08-22T12:44:12.606Z,26.80
2022-08-22T12:47:37.193Z,26.80
2022-08-22T12:50:52.964Z,27.60
2022-08-22T12:54:28.896Z,27.60
2022-08-22T12:57:50.292Z,26.60
2022-08-22T13:01:05.523Z,27.00
2022-08-22T13:04:32.467Z,26.90
2022-08-22T13:07:40.161Z,26.90
2022-08-22T13:10:51.468Z,26.70
2022-08-22T13:14:01.003Z,26.60
2022-08-22T13:17:24.466Z,26.70
2022-08-22T13:20:35.618Z,27.30
2022-08-22T13:23:46.660Z,26.60
2022-08-22T13:27:00.145Z,26.50
2022-08-22T13:30:12.598Z,28.70
2022-08-22T13:33:27.022Z,26.00
2022-08-22T13:36:35.427Z,26.60
2022-08-22T13:39:43.463Z,23.90
2022-08-22T13:42:54.189Z,26.50
2022-08-22T13:46:02.125Z,26.50
2022-08-22T13:49:13.216Z,26.50
2022-08-22T13:52:30.599Z,26.40
2022-08-22T13:55:49.019Z,26.50
2022-08-22T13:59:00.239Z,26.60
2022-08-22T14:02:18.181Z,26.70
2022-08-22T14:05:29.062Z,26.50
2022-08-22T14:08:38.199Z,26.80
2022-08-22T14:11:55.063Z,26.90
2022-08-22T14:15:02.942Z,27.00
2022-08-22T14:18:15.457Z,27.00
2022-08-22T14:21:41.198Z,26.90
2022-08-22T14:24:55.640Z,26.90
2022-08-22T14:28:06.482Z,26.90
2022-08-22T14:31:15.347Z,26.70
2022-08-22T14:34:21.215Z,26.70
2022-08-22T14:37:30.620Z,26.70
2022-08-22T14:40:38.339Z,26.70
2022-08-22T14:43:54.326Z,26.70
2022-08-22T14:47:15.814Z,26.60
2022-08-22T14:50:43.222Z,26.60
2022-08-22T14:53:46.736Z,26.50
2022-08-22T14:56:54.143Z,26.40
2022-08-22T14:59:57.639Z,26.20
2022-08-22T15:03:25.677Z,26.70
2022-08-22T15:06:37.786Z,26.00
2022-08-22T15:09:50.332Z,25.90
2022-08-22T15:12:59.737Z,25.90
2022-08-22T15:16:17.080Z,25.70
2022-08-22T15:19:28.299Z,25.80
2022-08-22T15:22:32.115Z,25.80
2022-08-22T15:25:41.006Z,25.70
2022-08-22T15:28:53.230Z,25.80
2022-08-22T15:32:03.154Z,26.30
2022-08-22T15:35:12.386Z,25.80
2022-08-22T15:38:36.444Z,26.40
2022-08-22T15:41:46.710Z,25.70
2022-08-22T15:44:56.149Z,25.70
2022-08-22T15:48:04.509Z,25.60
2022-08-22T15:51:14.632Z,25.60
2022-08-22T15:54:25.352Z,25.80
2022-08-22T15:57:34.843Z,25.50
2022-08-22T16:00:45.490Z,25.40
2022-08-22T16:04:00.517Z,25.30
2022-08-22T16:07:36.233Z,25.30
2022-08-22T16:10:44.235Z,25.20
2022-08-22T16:13:48.241Z,25.30
2022-08-22T16:17:01.008Z,25.30
2022-08-22T16:20:52.623Z,25.30
2022-08-22T16:24:34.357Z,25.30
2022-08-22T16:27:57.451Z,25.20
2022-08-22T16:31:21.139Z,25.10
2022-08-22T16:34:28.705Z,25.10
2022-08-22T16:37:50.884Z,25.10
2022-08-22T16:44:39.623Z,25.10
2022-08-22T16:47:56.893Z,25.10
2022-08-22T16:51:15.241Z,25.30
2022-08-22T16:54:44.875Z,25.00
2022-08-22T16:58:06.855Z,25.00
2022-08-22T17:01:23.727Z,25.00
2022-08-22T17:04:44.830Z,26.90
2022-08-22T17:08:09.839Z,24.60
2022-08-22T17:11:36.455Z,25.40
2022-08-22T17:14:52.636Z,24.50
2022-08-22T17:18:24.653Z,24.40
2022-08-22T17:21:38.102Z,24.30
2022-08-22T17:24:47.612Z,24.30
2022-08-22T17:28:11.865Z,24.20
2022-08-22T17:31:30.369Z,24.70
2022-08-22T17:34:45.114Z,22.50
2022-08-22T17:38:07.691Z,24.00
2022-08-22T17:41:30.447Z,24.00
2022-08-22T17:44:48.741Z,24.00
2022-08-22T17:48:03.843Z,25.40
2022-08-22T17:51:25.297Z,23.90
2022-08-22T17:54:40.932Z,23.80
2022-08-22T17:57:52.182Z,23.60
2022-08-22T18:01:03.704Z,23.80
2022-08-22T18:04:20.081Z,23.70
2022-08-22T18:07:50.528Z,23.70
2022-08-22T18:11:04.486Z,23.50
2022-08-22T18:14:11.606Z,23.60
2022-08-22T18:17:21.742Z,23.50
2022-08-22T18:20:37.257Z,23.50
2022-08-22T18:23:46.445Z,23.40
2022-08-22T18:26:59.455Z,20.90
2022-08-22T18:30:16.325Z,23.40
2022-08-22T18:33:32.775Z,23.30
2022-08-22T18:36:47.162Z,23.30
2022-08-22T18:39:59.750Z,23.20
2022-08-22T18:43:17.774Z,23.20
2022-08-22T18:46:44.767Z,24.50
2022-08-22T18:49:54.443Z,23.30
2022-08-22T18:52:59.890Z,23.10
2022-08-22T18:56:14.646Z,22.90
2022-08-22T18:59:50.283Z,22.90
2022-08-22T19:03:15.772Z,22.80
2022-08-22T19:07:05.768Z,22.80
2022-08-22T19:10:41.415Z,22.80
2022-08-22T19:14:21.609Z,22.70
2022-08-22T19:18:08.342Z,22.70
2022-08-22T19:21:46.544Z,22.70
2022-08-22T19:25:21.477Z,22.60
2022-08-22T19:28:35.652Z,21.40
2022-08-22T19:31:50.789Z,22.50
2022-08-22T19:35:21.635Z,22.50
2022-08-22T19:38:56.630Z,22.50
2022-08-22T19:42:01.138Z,22.40
2022-08-22T19:45:21.943Z,22.40
2022-08-22T19:48:31.457Z,22.40
2022-08-22T19:51:35.473Z,22.40
2022-08-22T19:54:48.206Z,22.40
2022-08-22T19:58:07.023Z,22.30
2022-08-22T20:01:49.657Z,22.30
2022-08-22T20:05:08.832Z,22.30
2022-08-22T20:08:37.507Z,22.30
2022-08-22T20:11:53.766Z,22.20
2022-08-22T20:15:17.436Z,22.20
2022-08-22T20:19:06.674Z,22.20
2022-08-22T20:22:17.348Z,22.20
2022-08-22T20:25:42.592Z,22.10
2022-08-22T20:28:52.378Z,22.10
2022-08-22T20:31:58.737Z,19.90
2022-08-22T20:35:06.223Z,22.10
2022-08-22T20:38:14.249Z,22.10
2022-08-22T20:41:24.965Z,22.00
2022-08-22T20:44:33.432Z,22.00
2022-08-22T20:47:40.788Z,22.00
2022-08-22T20:50:46.508Z,24.30
2022-08-22T20:53:54.731Z,22.00
2022-08-22T20:57:01.428Z,21.70
2022-08-22T21:00:12.219Z,21.90
2022-08-22T21:03:33.590Z,21.90
2022-08-22T21:06:39.160Z,21.80
2022-08-22T21:09:59.973Z,21.80
2022-08-22T21:13:11.191Z,21.80
2022-08-22T21:16:18.818Z,20.30
2022-08-22T21:19:28.465Z,21.70
2022-08-22T21:22:34.424Z,21.70
2022-08-22T21:25:57.235Z,21.70
2022-08-22T21:29:05.430Z,21.60
2022-08-22T21:32:25.770Z,21.50
2022-08-22T21:35:32.976Z,19.30
2022-08-22T21:38:39.333Z,21.30
2022-08-22T21:42:05.073Z,22.60
2022-08-22T21:45:14.182Z,21.00
2022-08-22T21:48:40.933Z,20.90
2022-08-22T21:51:46.867Z,20.80
2022-08-22T21:54:51.661Z,20.70
2022-08-22T21:58:10.593Z,20.60
2022-08-22T22:01:31.636Z,20.40
2022-08-22T22:04:35.408Z,20.40
2022-08-22T22:07:41.549Z,17.80
2022-08-22T22:10:49.099Z,20.10
2022-08-22T22:13:52.391Z,20.10
2022-08-22T22:16:55.994Z,20.00
2022-08-22T22:19:59.279Z,19.90
2022-08-22T22:23:02.474Z,19.80
2022-08-22T22:26:07.616Z,19.80
2022-08-22T22:29:10.841Z,19.60
2022-08-22T22:32:15.101Z,21.00
2022-08-22T22:35:19.163Z,19.60
2022-08-22T22:38:24.446Z,19.60
2022-08-22T22:41:29.009Z,19.60
2022-08-22T22:44:32.477Z,19.60
2022-08-22T22:47:36.423Z,19.50
2022-08-22T22:50:40.973Z,19.40
2022-08-22T22:53:45.499Z,19.40
2022-08-22T22:56:50.296Z,19.40
2022-08-22T22:59:53.606Z,19.50
2022-08-22T23:02:56.781Z,19.30
2022-08-22T23:05:59.977Z,19.30
2022-08-22T23:09:03.216Z,19.20
2022-08-22T23:12:09.034Z,19.20
2022-08-22T23:15:13.260Z,19.10
2022-08-22T23:18:16.559Z,19.10
2022-08-22T23:21:28.456Z,19.10
2022-08-22T23:24:31.943Z,19.00
2022-08-22T23:27:36.612Z,16.90
2022-08-22T23:30:39.792Z,19.00
2022-08-22T23:33:44.307Z,18.90
2022-08-22T23:36:48.818Z,18.90
2022-08-22T23:39:52.406Z,18.90
2022-08-22T23:42:59.179Z,18.80
2022-08-22T23:46:03.218Z,18.80
2022-08-22T23:49:07.840Z,18.20
2022-08-22T23:52:13.640Z,18.70
2022-08-22T23:55:17.104Z,20.80
2022-08-22T23:58:21.858Z,18.70
